sensor_id;sensor_type;location;lat;lon;timestamp;pressure;altitude;pressure_sealevel;temperature
20490;BMP280;10403;54.092;12.122;2022-07-29T00:01:42;102308.94;;;17.69
20490;BMP280;10403;54.092;12.122;2022-07-29T00:04:11;102315.97;;;17.70
20490;BMP280;10403;54.092;12.122;2022-07-29T00:06:39;102315.13;;;17.68
20490;BMP280;10403;54.092;12.122;2022-07-29T00:09:07;102304.56;;;17.65
20490;BMP280;10403;54.092;12.122;2022-07-29T00:11:34;102294.09;;;17.59
20490;BMP280;10403;54.092;12.122;2022-07-29T00:14:01;102309.88;;;17.63
20490;BMP280;10403;54.092;12.122;2022-07-29T00:16:28;102307.28;;;17.60
20490;BMP280;10403;54.092;12.122;2022-07-29T00:18:56;102303.78;;;17.58
20490;BMP280;10403;54.092;12.122;2022-07-29T00:21:28;102294.25;;;17.50
20490;BMP280;10403;54.092;12.122;2022-07-29T00:23:55;102301.22;;;17.54
20490;BMP280;10403;54.092;12.122;2022-07-29T00:26:22;102287.22;;;17.47
20490;BMP280;10403;54.092;12.122;2022-07-29T00:28:49;102284.59;;;17.47
20490;BMP280;10403;54.092;12.122;2022-07-29T00:31:16;102288.09;;;17.48
20490;BMP280;10403;54.092;12.122;2022-07-29T00:33:43;102282.91;;;17.43
20490;BMP280;10403;54.092;12.122;2022-07-29T00:36:10;102282.91;;;17.43
20490;BMP280;10403;54.092;12.122;2022-07-29T00:38:39;102282.03;;;17.43
20490;BMP280;10403;54.092;12.122;2022-07-29T00:41:08;102276.84;;;17.35
20490;BMP280;10403;54.092;12.122;2022-07-29T00:43:35;102277.72;;;17.35
20490;BMP280;10403;54.092;12.122;2022-07-29T00:46:02;102295.34;;;17.36
20490;BMP280;10403;54.092;12.122;2022-07-29T00:48:29;102289.22;;;17.34
20490;BMP280;10403;54.092;12.122;2022-07-29T00:50:58;102283.91;;;17.34
20490;BMP280;10403;54.092;12.122;2022-07-29T00:53:26;102292.75;;;17.33
20490;BMP280;10403;54.092;12.122;2022-07-29T00:55:54;102276.09;;;17.28
20490;BMP280;10403;54.092;12.122;2022-07-29T00:58:23;102293.69;;;17.32
20490;BMP280;10403;54.092;12.122;2022-07-29T01:00:51;102296.34;;;17.32
20490;BMP280;10403;54.092;12.122;2022-07-29T01:03:19;102291.94;;;17.31
20490;BMP280;10403;54.092;12.122;2022-07-29T01:05:46;102288.47;;;17.28
20490;BMP280;10403;54.092;12.122;2022-07-29T01:08:20;102283.22;;;17.25
20490;BMP280;10403;54.092;12.122;2022-07-29T01:10:48;102292.88;;;17.27
20490;BMP280;10403;54.092;12.122;2022-07-29T01:13:16;102286.72;;;17.27
20490;BMP280;10403;54.092;12.122;2022-07-29T01:15:51;102292.88;;;17.27
20490;BMP280;10403;54.092;12.122;2022-07-29T01:18:34;102285.84;;;17.26
20490;BMP280;10403;54.092;12.122;2022-07-29T01:21:51;102290.34;;;17.21
20490;BMP280;10403;54.092;12.122;2022-07-29T01:30:12;102291.31;;;17.14
20490;BMP280;10403;54.092;12.122;2022-07-29T01:32:47;102274.69;;;17.09
20490;BMP280;10403;54.092;12.122;2022-07-29T01:35:29;102281.72;;;17.10
20490;BMP280;10403;54.092;12.122;2022-07-29T01:38:13;102284.38;;;17.10
20490;BMP280;10403;54.092;12.122;2022-07-29T01:41:12;102286.16;;;17.07
20490;BMP280;10403;54.092;12.122;2022-07-29T01:43:56;102288.94;;;17.00
20490;BMP280;10403;54.092;12.122;2022-07-29T01:46:42;102276.75;;;16.90
20490;BMP280;10403;54.092;12.122;2022-07-29T01:49:18;102294.34;;;16.93
20490;BMP280;10403;54.092;12.122;2022-07-29T01:51:53;102289.97;;;16.90
20490;BMP280;10403;54.092;12.122;2022-07-29T01:54:40;102290.88;;;16.88
20490;BMP280;10403;54.092;12.122;2022-07-29T01:57:16;102277.78;;;16.80
20490;BMP280;10403;54.092;12.122;2022-07-29T01:59:48;102274.22;;;16.83
20490;BMP280;10403;54.092;12.122;2022-07-29T02:02:17;102267.25;;;16.79
20490;BMP280;10403;54.092;12.122;2022-07-29T02:04:48;102277.81;;;16.79
20490;BMP280;10403;54.092;12.122;2022-07-29T02:07:21;102265.53;;;16.75
20490;BMP280;10403;54.092;12.122;2022-07-29T02:09:50;102269.03;;;16.77
20490;BMP280;10403;54.092;12.122;2022-07-29T02:12:19;102269.91;;;16.76
20490;BMP280;10403;54.092;12.122;2022-07-29T02:14:53;102266.47;;;16.72
20490;BMP280;10403;54.092;12.122;2022-07-29T02:18:17;102262.09;;;16.70
20490;BMP280;10403;54.092;12.122;2022-07-29T02:20:20;102259.47;;;16.68
20490;BMP280;10403;54.092;12.122;2022-07-29T02:22:50;102261.25;;;16.68
20490;BMP280;10403;54.092;12.122;2022-07-29T02:25:21;102266.59;;;16.64
20490;BMP280;10403;54.092;12.122;2022-07-29T02:27:51;102252.44;;;16.65
20490;BMP280;10403;54.092;12.122;2022-07-29T02:30:20;102263.84;;;16.71
20490;BMP280;10403;54.092;12.122;2022-07-29T02:32:50;102265.59;;;16.72
20490;BMP280;10403;54.092;12.122;2022-07-29T02:35:19;102257.69;;;16.70
20490;BMP280;10403;54.092;12.122;2022-07-29T02:37:50;102257.69;;;16.70
20490;BMP280;10403;54.092;12.122;2022-07-29T02:40:39;102254.19;;;16.68
20490;BMP280;10403;54.092;12.122;2022-07-29T02:43:09;102246.28;;;16.65
20490;BMP280;10403;54.092;12.122;2022-07-29T02:45:38;102258.56;;;16.71
20490;BMP280;10403;54.092;12.122;2022-07-29T02:48:13;102241.06;;;16.63
20490;BMP280;10403;54.092;12.122;2022-07-29T02:50:50;102250.66;;;16.69
20490;BMP280;10403;54.092;12.122;2022-07-29T02:53:23;102238.44;;;16.62
20490;BMP280;10403;54.092;12.122;2022-07-29T02:55:57;102247.22;;;16.64
20490;BMP280;10403;54.092;12.122;2022-07-29T02:58:34;102244.56;;;16.61
20490;BMP280;10403;54.092;12.122;2022-07-29T03:01:11;102255.16;;;16.59
20490;BMP280;10403;54.092;12.122;2022-07-29T03:03:51;102248.16;;;16.55
20490;BMP280;10403;54.092;12.122;2022-07-29T03:06:22;102248.22;;;16.54
20490;BMP280;10403;54.092;12.122;2022-07-29T03:09:07;102250.91;;;16.51
20490;BMP280;10403;54.092;12.122;2022-07-29T03:11:41;102242.13;;;16.47
20490;BMP280;10403;54.092;12.122;2022-07-29T03:14:18;102257.06;;;16.50
20490;BMP280;10403;54.092;12.122;2022-07-29T03:16:48;102250.91;;;16.51
20490;BMP280;10403;54.092;12.122;2022-07-29T03:19:16;102251.75;;;16.53
20490;BMP280;10403;54.092;12.122;2022-07-29T03:21:43;102243.81;;;16.53
20490;BMP280;10403;54.092;12.122;2022-07-29T03:24:26;102248.16;;;16.55
20490;BMP280;10403;54.092;12.122;2022-07-29T03:26:55;102242.09;;;16.49
20490;BMP280;10403;54.092;12.122;2022-07-29T03:29:24;102250.78;;;16.57
20490;BMP280;10403;54.092;12.122;2022-07-29T03:32:02;102256.06;;;16.58
20490;BMP280;10403;54.092;12.122;2022-07-29T03:34:33;102256.91;;;16.60
20490;BMP280;10403;54.092;12.122;2022-07-29T03:37:00;102244.59;;;16.59
20490;BMP280;10403;54.092;12.122;2022-07-29T03:39:34;102253.38;;;16.64
20490;BMP280;10403;54.092;12.122;2022-07-29T03:42:04;102248.03;;;16.68
20490;BMP280;10403;54.092;12.122;2022-07-29T03:44:34;102243.56;;;16.71
20490;BMP280;10403;54.092;12.122;2022-07-29T03:47:03;102247.00;;;16.76
20490;BMP280;10403;54.092;12.122;2022-07-29T03:49:34;102237.25;;;16.80
20490;BMP280;10403;54.092;12.122;2022-07-29T03:52:04;102238.91;;;16.87
20490;BMP280;10403;54.092;12.122;2022-07-29T03:54:32;102241.34;;;16.99
20490;BMP280;10403;54.092;12.122;2022-07-29T03:57:02;102234.84;;;17.18
20490;BMP280;10403;54.092;12.122;2022-07-29T03:59:33;102236.22;;;17.41
20490;BMP280;10403;54.092;12.122;2022-07-29T04:02:03;102242.00;;;17.61
20490;BMP280;10403;54.092;12.122;2022-07-29T04:04:35;102224.97;;;17.74
20490;BMP280;10403;54.092;12.122;2022-07-29T04:07:03;102236.03;;;17.94
20490;BMP280;10403;54.092;12.122;2022-07-29T04:09:31;102238.28;;;18.12
20490;BMP280;10403;54.092;12.122;2022-07-29T04:11:58;102227.38;;;18.28
20490;BMP280;10403;54.092;12.122;2022-07-29T04:14:32;102238.16;;;18.60
20490;BMP280;10403;54.092;12.122;2022-07-29T04:17:01;102241.94;;;18.85
20490;BMP280;10403;54.092;12.122;2022-07-29T04:19:28;102233.47;;;19.05
20490;BMP280;10403;54.092;12.122;2022-07-29T04:21:55;102239.28;;;19.19
20490;BMP280;10403;54.092;12.122;2022-07-29T04:24:22;102237.50;;;19.20
20490;BMP280;10403;54.092;12.122;2022-07-29T04:26:49;102235.94;;;19.13
20490;BMP280;10403;54.092;12.122;2022-07-29T04:29:17;102241.66;;;18.98
20490;BMP280;10403;54.092;12.122;2022-07-29T04:31:44;102241.94;;;18.85
20490;BMP280;10403;54.092;12.122;2022-07-29T04:34:12;102223.78;;;18.70
20490;BMP280;10403;54.092;12.122;2022-07-29T04:36:39;102237.97;;;18.68
20490;BMP280;10403;54.092;12.122;2022-07-29T04:39:06;102235.44;;;18.62
20490;BMP280;10403;54.092;12.122;2022-07-29T04:41:33;102233.78;;;18.56
20490;BMP280;10403;54.092;12.122;2022-07-29T04:44:01;102233.78;;;18.56
20490;BMP280;10403;54.092;12.122;2022-07-29T04:46:34;102239.09;;;18.56
20490;BMP280;10403;54.092;12.122;2022-07-29T04:49:02;102229.34;;;18.58
20490;BMP280;10403;54.092;12.122;2022-07-29T04:51:30;102222.28;;;18.59
20490;BMP280;10403;54.092;12.122;2022-07-29T04:53:57;102223.00;;;18.65
20490;BMP280;10403;54.092;12.122;2022-07-29T04:56:24;102223.47;;;18.81
20490;BMP280;10403;54.092;12.122;2022-07-29T04:58:51;102220.47;;;18.96
20490;BMP280;10403;54.092;12.122;2022-07-29T05:01:19;102220.09;;;19.10
20490;BMP280;10403;54.092;12.122;2022-07-29T05:03:46;102220.78;;;19.18
20490;BMP280;10403;54.092;12.122;2022-07-29T05:06:13;102220.72;;;19.19
20490;BMP280;10403;54.092;12.122;2022-07-29T05:08:41;102226.00;;;19.19
20490;BMP280;10403;54.092;12.122;2022-07-29T05:11:08;102219.94;;;19.16
20490;BMP280;10403;54.092;12.122;2022-07-29T05:13:38;102222.81;;;19.08
20490;BMP280;10403;54.092;12.122;2022-07-29T05:16:13;102209.88;;;18.95
20490;BMP280;10403;54.092;12.122;2022-07-29T05:18:41;102214.34;;;18.93
20490;BMP280;10403;54.092;12.122;2022-07-29T05:21:09;102220.72;;;18.85
20490;BMP280;10403;54.092;12.122;2022-07-29T05:23:36;102229.53;;;18.88
20490;BMP280;10403;54.092;12.122;2022-07-29T05:26:03;102218.88;;;18.89
20490;BMP280;10403;54.092;12.122;2022-07-29T05:28:34;102223.97;;;18.97
20490;BMP280;10403;54.092;12.122;2022-07-29T05:31:01;102220.28;;;19.02
20490;BMP280;10403;54.092;12.122;2022-07-29T05:33:29;102226.38;;;19.07
20490;BMP280;10403;54.092;12.122;2022-07-29T05:36:04;102208.00;;;19.00
20490;BMP280;10403;54.092;12.122;2022-07-29T05:38:35;102233.06;;;19.20
20490;BMP280;10403;54.092;12.122;2022-07-29T05:41:05;102231.88;;;19.32
20490;BMP280;10403;54.092;12.122;2022-07-29T05:43:33;102224.47;;;19.45
20490;BMP280;10403;54.092;12.122;2022-07-29T05:46:00;102230.22;;;19.62
20490;BMP280;10403;54.092;12.122;2022-07-29T05:48:27;102231.56;;;19.77
20490;BMP280;10403;54.092;12.122;2022-07-29T05:50:55;102230.38;;;19.87
20490;BMP280;10403;54.092;12.122;2022-07-29T05:53:22;102232.13;;;19.88
20490;BMP280;10403;54.092;12.122;2022-07-29T05:55:50;102233.03;;;19.87
20490;BMP280;10403;54.092;12.122;2022-07-29T05:58:18;102229.53;;;19.86
20490;BMP280;10403;54.092;12.122;2022-07-29T06:00:45;102225.09;;;19.87
20490;BMP280;10403;54.092;12.122;2022-07-29T06:03:13;102224.97;;;19.90
20490;BMP280;10403;54.092;12.122;2022-07-29T06:05:40;102226.56;;;19.97
20490;BMP280;10403;54.092;12.122;2022-07-29T06:08:07;102225.44;;;20.04
20490;BMP280;10403;54.092;12.122;2022-07-29T06:10:35;102222.72;;;20.07
20490;BMP280;10403;54.092;12.122;2022-07-29T06:13:03;102212.16;;;20.04
20490;BMP280;10403;54.092;12.122;2022-07-29T06:15:30;102216.38;;;20.11
20490;BMP280;10403;54.092;12.122;2022-07-29T06:17:57;102222.44;;;20.16
20490;BMP280;10403;54.092;12.122;2022-07-29T06:20:31;102223.00;;;20.26
20490;BMP280;10403;54.092;12.122;2022-07-29T06:22:59;102220.13;;;20.33
20490;BMP280;10403;54.092;12.122;2022-07-29T06:25:27;102226.31;;;20.34
20490;BMP280;10403;54.092;12.122;2022-07-29T06:28:01;102214.78;;;20.33
20490;BMP280;10403;54.092;12.122;2022-07-29T06:30:28;102218.19;;;20.39
20490;BMP280;10403;54.092;12.122;2022-07-29T06:32:56;102222.63;;;20.38
20490;BMP280;10403;54.092;12.122;2022-07-29T06:35:23;102215.59;;;20.37
20490;BMP280;10403;54.092;12.122;2022-07-29T06:38:08;102218.31;;;20.34
20490;BMP280;10403;54.092;12.122;2022-07-29T06:40:55;102215.41;;;20.43
20490;BMP280;10403;54.092;12.122;2022-07-29T06:43:42;102170.47;;;20.36
20490;BMP280;10403;54.092;12.122;2022-07-29T06:46:21;102210.72;;;20.78
20490;BMP280;10403;54.092;12.122;2022-07-29T06:48:50;102211.19;;;20.90
20490;BMP280;10403;54.092;12.122;2022-07-29T06:51:19;102203.66;;;21.03
20490;BMP280;10403;54.092;12.122;2022-07-29T06:53:52;102199.63;;;21.16
20490;BMP280;10403;54.092;12.122;2022-07-29T06:56:30;102205.53;;;21.26
20490;BMP280;10403;54.092;12.122;2022-07-29T06:59:07;102197.16;;;21.36
20490;BMP280;10403;54.092;12.122;2022-07-29T07:01:37;102210.91;;;21.49
20490;BMP280;10403;54.092;12.122;2022-07-29T07:04:05;102204.38;;;21.58
20490;BMP280;10403;54.092;12.122;2022-07-29T07:06:32;102203.16;;;21.66
20490;BMP280;10403;54.092;12.122;2022-07-29T07:09:00;102189.69;;;21.71
20490;BMP280;10403;54.092;12.122;2022-07-29T07:11:27;102197.28;;;21.82
20490;BMP280;10403;54.092;12.122;2022-07-29T07:13:54;102203.44;;;21.84
20490;BMP280;10403;54.092;12.122;2022-07-29T07:16:28;102201.69;;;21.83
20490;BMP280;10403;54.092;12.122;2022-07-29T07:18:55;102203.13;;;21.91
20490;BMP280;10403;54.092;12.122;2022-07-29T07:21:23;102202.81;;;22.00
20490;BMP280;10403;54.092;12.122;2022-07-29T07:23:50;102206.81;;;22.12
20490;BMP280;10403;54.092;12.122;2022-07-29T07:26:17;102194.03;;;22.20
20490;BMP280;10403;54.092;12.122;2022-07-29T07:28:44;102199.56;;;22.37
20490;BMP280;10403;54.092;12.122;2022-07-29T07:31:12;102198.25;;;22.47
20490;BMP280;10403;54.092;12.122;2022-07-29T07:33:39;102184.88;;;22.49
20490;BMP280;10403;54.092;12.122;2022-07-29T07:36:06;102198.00;;;22.53
20490;BMP280;10403;54.092;12.122;2022-07-29T07:38:33;102190.91;;;22.52
20490;BMP280;10403;54.092;12.122;2022-07-29T07:41:01;102175.19;;;22.46
20490;BMP280;10403;54.092;12.122;2022-07-29T07:43:29;102187.25;;;22.55
20490;BMP280;10403;54.092;12.122;2022-07-29T07:45:57;102180.94;;;22.58
20490;BMP280;10403;54.092;12.122;2022-07-29T07:48:25;102187.91;;;22.62
20490;BMP280;10403;54.092;12.122;2022-07-29T07:50:52;102178.00;;;22.64
20490;BMP280;10403;54.092;12.122;2022-07-29T07:53:19;102178.59;;;22.72
20490;BMP280;10403;54.092;12.122;2022-07-29T07:55:46;102178.50;;;22.73
20490;BMP280;10403;54.092;12.122;2022-07-29T07:58:33;102180.09;;;22.79
20490;BMP280;10403;54.092;12.122;2022-07-29T08:01:02;102179.75;;;22.86
20490;BMP280;10403;54.092;12.122;2022-07-29T08:03:29;102177.69;;;22.93
20490;BMP280;10403;54.092;12.122;2022-07-29T08:05:56;102168.50;;;23.00
20490;BMP280;10403;54.092;12.122;2022-07-29T08:08:24;102176.34;;;23.03
20490;BMP280;10403;54.092;12.122;2022-07-29T08:10:51;102170.88;;;23.06
20490;BMP280;10403;54.092;12.122;2022-07-29T08:13:22;102165.34;;;23.11
20490;BMP280;10403;54.092;12.122;2022-07-29T08:15:49;102168.69;;;23.16
20490;BMP280;10403;54.092;12.122;2022-07-29T08:18:39;102169.53;;;23.16
20490;BMP280;10403;54.092;12.122;2022-07-29T08:21:06;102158.19;;;23.11
20490;BMP280;10403;54.092;12.122;2022-07-29T08:23:33;102163.75;;;23.07
20490;BMP280;10403;54.092;12.122;2022-07-29T08:26:20;102163.94;;;23.02
20490;BMP280;10403;54.092;12.122;2022-07-29T08:28:49;102171.00;;;23.03
20490;BMP280;10403;54.092;12.122;2022-07-29T08:31:17;102154.22;;;23.01
20490;BMP280;10403;54.092;12.122;2022-07-29T08:33:45;102155.50;;;23.11
20490;BMP280;10403;54.092;12.122;2022-07-29T08:36:12;102166.00;;;23.16
20490;BMP280;10403;54.092;12.122;2022-07-29T08:38:40;102166.88;;;23.16
20490;BMP280;10403;54.092;12.122;2022-07-29T08:41:07;102166.88;;;23.16
20490;BMP280;10403;54.092;12.122;2022-07-29T08:43:34;102163.34;;;23.16
20490;BMP280;10403;54.092;12.122;2022-07-29T08:46:04;102160.59;;;23.17
20490;BMP280;10403;54.092;12.122;2022-07-29T08:48:32;102163.16;;;23.20
20490;BMP280;10403;54.092;12.122;2022-07-29T08:51:00;102154.03;;;23.24
20490;BMP280;10403;54.092;12.122;2022-07-29T08:53:30;102164.19;;;23.37
20490;BMP280;10403;54.092;12.122;2022-07-29T08:55:59;102161.53;;;23.57
20490;BMP280;10403;54.092;12.122;2022-07-29T08:58:31;102157.97;;;23.75
20490;BMP280;10403;54.092;12.122;2022-07-29T09:01:03;102148.47;;;23.88
20490;BMP280;10403;54.092;12.122;2022-07-29T09:03:36;102146.84;;;24.03
20490;BMP280;10403;54.092;12.122;2022-07-29T09:06:05;102156.72;;;24.20
20490;BMP280;10403;54.092;12.122;2022-07-29T09:08:32;102152.41;;;24.36
20490;BMP280;10403;54.092;12.122;2022-07-29T09:11:03;102153.69;;;24.46
20490;BMP280;10403;54.092;12.122;2022-07-29T09:13:31;102140.78;;;24.54
20490;BMP280;10403;54.092;12.122;2022-07-29T09:15:58;102146.94;;;24.56
20490;BMP280;10403;54.092;12.122;2022-07-29T09:18:45;102147.00;;;24.55
20490;BMP280;10403;54.092;12.122;2022-07-29T09:21:15;102144.53;;;24.50
20490;BMP280;10403;54.092;12.122;2022-07-29T09:24:11;102150.06;;;24.47
20490;BMP280;10403;54.092;12.122;2022-07-29T09:26:43;102154.63;;;24.45
20490;BMP280;10403;54.092;12.122;2022-07-29T09:29:23;102145.81;;;24.43
20490;BMP280;10403;54.092;12.122;2022-07-29T09:31:53;102153.69;;;24.46
20490;BMP280;10403;54.092;12.122;2022-07-29T09:34:24;102138.44;;;24.48
20490;BMP280;10403;54.092;12.122;2022-07-29T09:36:54;102137.44;;;24.49
20490;BMP280;10403;54.092;12.122;2022-07-29T09:42:00;102137.38;;;24.51
20490;BMP280;10403;54.092;12.122;2022-07-29T09:47:12;102148.25;;;24.48
20490;BMP280;10403;54.092;12.122;2022-07-29T09:49:56;102141.53;;;24.39
20490;BMP280;10403;54.092;12.122;2022-07-29T09:52:29;102133.97;;;24.30
20490;BMP280;10403;54.092;12.122;2022-07-29T09:55:08;102135.69;;;24.31
20490;BMP280;10403;54.092;12.122;2022-07-29T09:57:40;102131.28;;;24.30
20490;BMP280;10403;54.092;12.122;2022-07-29T10:00:12;102146.31;;;24.32
20490;BMP280;10403;54.092;12.122;2022-07-29T10:02:42;102136.41;;;24.34
20490;BMP280;10403;54.092;12.122;2022-07-29T10:05:24;102131.81;;;24.38
20490;BMP280;10403;54.092;12.122;2022-07-29T10:07:57;102129.88;;;24.40
20490;BMP280;10403;54.092;12.122;2022-07-29T10:10:28;102128.16;;;24.39
20490;BMP280;10403;54.092;12.122;2022-07-29T10:12:58;102123.78;;;24.38
20490;BMP280;10403;54.092;12.122;2022-07-29T10:15:37;102127.06;;;24.43
20490;BMP280;10403;54.092;12.122;2022-07-29T10:18:08;102122.25;;;24.50
20490;BMP280;10403;54.092;12.122;2022-07-29T10:20:37;102122.84;;;24.56
20490;BMP280;10403;54.092;12.122;2022-07-29T10:23:05;102125.28;;;24.61
20490;BMP280;10403;54.092;12.122;2022-07-29T10:25:33;102112.81;;;24.60
20490;BMP280;10403;54.092;12.122;2022-07-29T10:28:00;102119.38;;;24.71
20490;BMP280;10403;54.092;12.122;2022-07-29T10:30:27;102122.69;;;24.77
20490;BMP280;10403;54.092;12.122;2022-07-29T10:41:56;102116.91;;;25.19
20490;BMP280;10403;54.092;12.122;2022-07-29T10:44:27;102102.94;;;25.29
20490;BMP280;10403;54.092;12.122;2022-07-29T10:46:55;102106.91;;;25.38
20490;BMP280;10403;54.092;12.122;2022-07-29T10:49:26;102092.56;;;25.39
20490;BMP280;10403;54.092;12.122;2022-07-29T10:52:06;102102.78;;;25.48
20490;BMP280;10403;54.092;12.122;2022-07-29T10:57:20;102102.38;;;25.56
20490;BMP280;10403;54.092;12.122;2022-07-29T11:02:42;102091.03;;;25.51
20490;BMP280;10403;54.092;12.122;2022-07-29T11:05:19;102097.97;;;25.55
20490;BMP280;10403;54.092;12.122;2022-07-29T11:11:32;102089.53;;;25.62
20490;BMP280;10403;54.092;12.122;2022-07-29T11:14:00;102087.81;;;25.61
20490;BMP280;10403;54.092;12.122;2022-07-29T11:17:04;102087.88;;;25.60
20490;BMP280;10403;54.092;12.122;2022-07-29T11:19:34;102072.72;;;25.59
20490;BMP280;10403;54.092;12.122;2022-07-29T11:22:02;102098.66;;;25.58
20490;BMP280;10403;54.092;12.122;2022-07-29T11:24:31;102091.66;;;25.56
20490;BMP280;10403;54.092;12.122;2022-07-29T11:27:18;102082.06;;;25.52
20490;BMP280;10403;54.092;12.122;2022-07-29T11:29:58;102077.72;;;25.49
20490;BMP280;10403;54.092;12.122;2022-07-29T11:32:38;102077.06;;;25.46
20490;BMP280;10403;54.092;12.122;2022-07-29T11:35:18;102080.69;;;25.44
20490;BMP280;10403;54.092;12.122;2022-07-29T11:38:25;102076.41;;;25.40
20490;BMP280;10403;54.092;12.122;2022-07-29T11:41:26;102075.63;;;25.38
20490;BMP280;10403;54.092;12.122;2022-07-29T11:44:01;102063.19;;;25.37
20490;BMP280;10403;54.092;12.122;2022-07-29T11:46:49;102068.53;;;25.37
20490;BMP280;10403;54.092;12.122;2022-07-29T11:49:25;102060.78;;;25.33
20490;BMP280;10403;54.092;12.122;2022-07-29T11:52:00;102068.53;;;25.37
20490;BMP280;10403;54.092;12.122;2022-07-29T11:54:34;102070.28;;;25.38
20490;BMP280;10403;54.092;12.122;2022-07-29T11:57:21;102054.72;;;25.29
20490;BMP280;10403;54.092;12.122;2022-07-29T11:59:48;102069.53;;;25.36
20490;BMP280;10403;54.092;12.122;2022-07-29T12:02:16;102060.78;;;25.33
20490;BMP280;10403;54.092;12.122;2022-07-29T12:05:03;102061.63;;;25.33
20490;BMP280;10403;54.092;12.122;2022-07-29T12:07:50;102070.34;;;25.37
20490;BMP280;10403;54.092;12.122;2022-07-29T12:10:18;102054.91;;;25.42
20490;BMP280;10403;54.092;12.122;2022-07-29T12:12:57;102049.91;;;25.52
20490;BMP280;10403;54.092;12.122;2022-07-29T12:15:24;102052.97;;;25.61
20490;BMP280;10403;54.092;12.122;2022-07-29T12:18:18;102046.28;;;25.68
20490;BMP280;10403;54.092;12.122;2022-07-29T12:20:58;102044.41;;;25.70
20490;BMP280;10403;54.092;12.122;2022-07-29T12:23:31;102032.44;;;25.76
20490;BMP280;10403;54.092;12.122;2022-07-29T12:26:05;102046.28;;;25.84
20490;BMP280;10403;54.092;12.122;2022-07-29T12:28:38;102052.53;;;25.85
20490;BMP280;10403;54.092;12.122;2022-07-29T12:31:13;102051.66;;;25.84
20490;BMP280;10403;54.092;12.122;2022-07-29T12:34:01;102046.63;;;25.78
20490;BMP280;10403;54.092;12.122;2022-07-29T12:36:28;102056.16;;;25.84
20490;BMP280;10403;54.092;12.122;2022-07-29T12:38:55;102048.19;;;25.82
20490;BMP280;10403;54.092;12.122;2022-07-29T12:41:23;102036.53;;;25.83
20490;BMP280;10403;54.092;12.122;2022-07-29T12:43:54;102043.50;;;25.86
20490;BMP280;10403;54.092;12.122;2022-07-29T12:46:22;102031.16;;;25.83
20490;BMP280;10403;54.092;12.122;2022-07-29T12:48:54;102030.88;;;25.88
20490;BMP280;10403;54.092;12.122;2022-07-29T12:51:48;102046.53;;;25.95
20490;BMP280;10403;54.092;12.122;2022-07-29T12:54:15;102043.09;;;25.93
20490;BMP280;10403;54.092;12.122;2022-07-29T12:56:44;102038.66;;;25.92
20490;BMP280;10403;54.092;12.122;2022-07-29T12:59:21;102031.41;;;25.94
20490;BMP280;10403;54.092;12.122;2022-07-29T13:01:51;102033.13;;;25.95
20490;BMP280;10403;54.092;12.122;2022-07-29T13:04:31;102027.84;;;25.94
20490;BMP280;10403;54.092;12.122;2022-07-29T13:07:05;102026.03;;;25.94
20490;BMP280;10403;54.092;12.122;2022-07-29T13:09:42;102009.34;;;25.89
20490;BMP280;10403;54.092;12.122;2022-07-29T13:12:12;102011.88;;;26.06
20490;BMP280;10403;54.092;12.122;2022-07-29T13:14:46;102010.38;;;26.16
20490;BMP280;10403;54.092;12.122;2022-07-29T13:17:21;102001.91;;;26.24
20490;BMP280;10403;54.092;12.122;2022-07-29T13:20:12;102003.59;;;26.41
20490;BMP280;10403;54.092;12.122;2022-07-29T13:22:42;102002.25;;;26.48
20490;BMP280;10403;54.092;12.122;2022-07-29T13:25:14;102004.25;;;26.44
20490;BMP280;10403;54.092;12.122;2022-07-29T13:27:41;102004.09;;;26.47
20490;BMP280;10403;54.092;12.122;2022-07-29T13:30:09;102003.50;;;26.42
20490;BMP280;10403;54.092;12.122;2022-07-29T13:32:37;102000.31;;;26.36
20490;BMP280;10403;54.092;12.122;2022-07-29T13:35:07;101997.06;;;26.31
20490;BMP280;10403;54.092;12.122;2022-07-29T13:37:36;101999.22;;;26.24
20490;BMP280;10403;54.092;12.122;2022-07-29T13:40:07;101994.22;;;26.18
20490;BMP280;10403;54.092;12.122;2022-07-29T13:42:35;101996.53;;;26.24
20490;BMP280;10403;54.092;12.122;2022-07-29T13:45:04;102013.06;;;26.32
20490;BMP280;10403;54.092;12.122;2022-07-29T13:47:33;102001.09;;;26.38
20490;BMP280;10403;54.092;12.122;2022-07-29T13:50:01;101997.38;;;26.40
20490;BMP280;10403;54.092;12.122;2022-07-29T13:52:31;102006.38;;;26.39
20490;BMP280;10403;54.092;12.122;2022-07-29T13:54:58;102002.06;;;26.37
20490;BMP280;10403;54.092;12.122;2022-07-29T13:57:25;102002.59;;;26.28
20490;BMP280;10403;54.092;12.122;2022-07-29T13:59:52;102004.47;;;26.26
20490;BMP280;10403;54.092;12.122;2022-07-29T14:02:20;102005.34;;;26.26
20490;BMP280;10403;54.092;12.122;2022-07-29T14:04:53;102006.25;;;26.27
20490;BMP280;10403;54.092;12.122;2022-07-29T14:07:22;102004.47;;;26.26
20490;BMP280;10403;54.092;12.122;2022-07-29T14:09:50;102006.41;;;26.24
20490;BMP280;10403;54.092;12.122;2022-07-29T14:12:17;101999.88;;;26.13
20490;BMP280;10403;54.092;12.122;2022-07-29T14:14:44;102005.22;;;26.13
20490;BMP280;10403;54.092;12.122;2022-07-29T14:17:14;102004.53;;;26.10
20490;BMP280;10403;54.092;12.122;2022-07-29T14:20:02;101993.31;;;26.03
20490;BMP280;10403;54.092;12.122;2022-07-29T14:22:29;102001.16;;;26.06
20490;BMP280;10403;54.092;12.122;2022-07-29T14:24:57;101996.75;;;26.05
20490;BMP280;10403;54.092;12.122;2022-07-29T14:27:35;101989.47;;;26.07
20490;BMP280;10403;54.092;12.122;2022-07-29T14:30:06;101986.81;;;26.07
20490;BMP280;10403;54.092;12.122;2022-07-29T14:32:33;101994.28;;;26.16
20490;BMP280;10403;54.092;12.122;2022-07-29T14:35:00;101987.19;;;26.15
20490;BMP280;10403;54.092;12.122;2022-07-29T14:37:27;101992.56;;;26.15
20490;BMP280;10403;54.092;12.122;2022-07-29T14:40:07;101997.75;;;26.18